Time;durP1;ratioP1;P1;durP2;ratioP2;P2;SDS_P1;SDS_P2;PMS_P1;PMS_P2;Temp;Humidity;BMP_temperature;BMP_pressure;BME280_temperature;BME280_humidity;BME280_pressure;Samples;Min_cycle;Max_cycle;Signal;HPM_P1;HPM_P2
2022/10/25 00:08:53;;;;;;;5.90;2.03;;;;;;;;;;21077968;28;20147;-61
2022/10/25 00:18:55;;;;;;;4.45;1.58;;;;;;;;;;21077600;28;20052;-62
2022/10/25 00:28:57;;;;;;;6.28;2.03;;;;;;;;;;21077610;28;20048;-61
2022/10/25 00:39:00;;;;;;;5.93;2.03;;;;;;;;;;21077111;28;20059;-61
2022/10/25 00:49:21;;;;;;;6.82;1.60;;;;;;;;;;21076418;28;20055;-61
2022/10/25 00:59:24;;;;;;;3.13;1.55;;;;;;;;;;21091557;28;20044;-61
2022/10/25 01:09:28;;;;;;;6.68;1.50;;;;;;;;;;21090614;28;20044;-61
2022/10/25 01:19:33;;;;;;;3.25;1.20;;;;;;;;;;21091063;28;20165;-62
2022/10/25 01:29:47;;;;;;;3.70;1.20;;;;;;;;;;21089124;28;20085;-62
2022/10/25 01:39:53;;;;;;;3.92;1.25;;;;;;;;;;21088482;28;20185;-61
2022/10/25 01:50:00;;;;;;;3.25;1.27;;;;;;;;;;21086897;28;20091;-62
2022/10/25 02:00:16;;;;;;;3.80;1.48;;;;;;;;;;21087242;28;20476;-62
2022/10/25 02:10:23;;;;;;;3.47;1.52;;;;;;;;;;21085901;28;20052;-61
2022/10/25 02:20:26;;;;;;;4.05;1.48;;;;;;;;;;21084678;28;20157;-61
2022/10/25 02:30:31;;;;;;;4.60;1.92;;;;;;;;;;21084840;28;20044;-61
2022/10/25 02:40:35;;;;;;;9.50;2.08;;;;;;;;;;21082969;28;20076;-62
2022/10/25 02:50:38;;;;;;;7.60;1.70;;;;;;;;;;21082146;28;20063;-63
2022/10/25 03:00:41;;;;;;;6.18;1.70;;;;;;;;;;21081718;28;20113;-62
2022/10/25 03:10:43;;;;;;;6.05;1.60;;;;;;;;;;21081545;28;20044;-62
2022/10/25 03:20:45;;;;;;;3.42;1.50;;;;;;;;;;21079965;28;20052;-61
2022/10/25 03:30:49;;;;;;;2.80;1.42;;;;;;;;;;21080080;28;20102;-62
2022/10/25 03:40:52;;;;;;;3.63;1.58;;;;;;;;;;21079313;28;20131;-62
2022/10/25 03:50:54;;;;;;;4.80;1.60;;;;;;;;;;21078899;28;20048;-62
2022/10/25 04:00:58;;;;;;;6.38;1.80;;;;;;;;;;21078266;28;20048;-61
2022/10/25 04:11:01;;;;;;;8.65;2.05;;;;;;;;;;21078008;28;20495;-62
2022/10/25 04:21:03;;;;;;;7.60;1.90;;;;;;;;;;21077823;28;20048;-61
2022/10/25 04:31:05;;;;;;;4.68;1.77;;;;;;;;;;21087897;28;20055;-61
2022/10/25 04:41:08;;;;;;;5.05;2.03;;;;;;;;;;21092620;28;20087;-62
2022/10/25 04:51:11;;;;;;;6.35;2.13;;;;;;;;;;21092541;28;20059;-61
2022/10/25 05:01:15;;;;;;;9.05;2.30;;;;;;;;;;21091161;28;20380;-63
2022/10/25 05:11:19;;;;;;;5.13;1.90;;;;;;;;;;21090838;28;20048;-62
2022/10/25 05:21:22;;;;;;;5.60;2.00;;;;;;;;;;21090193;28;20040;-62
2022/10/25 05:31:26;;;;;;;5.57;2.20;;;;;;;;;;21088848;28;20074;-62
2022/10/25 05:41:28;;;;;;;9.95;2.30;;;;;;;;;;21087437;28;20492;-62
2022/10/25 05:51:31;;;;;;;5.95;2.05;;;;;;;;;;21087815;28;20044;-62
2022/10/25 06:01:32;;;;;;;8.35;2.42;;;;;;;;;;21086160;28;20056;-62
2022/10/25 06:11:35;;;;;;;9.05;3.28;;;;;;;;;;21085038;28;20052;-63
2022/10/25 06:21:37;;;;;;;68.45;34.22;;;;;;;;;;21084476;28;20130;-61
2022/10/25 06:31:41;;;;;;;7.18;2.72;;;;;;;;;;21083434;28;20533;-62
2022/10/25 06:41:43;;;;;;;5.75;2.40;;;;;;;;;;21083320;28;20067;-61
2022/10/25 06:51:45;;;;;;;9.45;2.20;;;;;;;;;;21081253;28;20090;-62
2022/10/25 07:01:47;;;;;;;7.40;2.15;;;;;;;;;;21081788;28;20040;-62
2022/10/25 07:11:49;;;;;;;8.10;1.90;;;;;;;;;;21080955;28;20113;-61
2022/10/25 07:21:52;;;;;;;7.40;2.72;;;;;;;;;;21080193;28;20044;-62
2022/10/25 07:31:54;;;;;;;9.70;2.60;;;;;;;;;;21079160;28;20059;-62
2022/10/25 07:41:56;;;;;;;9.43;2.97;;;;;;;;;;21078760;28;20044;-62
2022/10/25 07:51:58;;;;;;;11.73;3.35;;;;;;;;;;21078492;28;20052;-63
2022/10/25 08:02:00;;;;;;;13.73;3.30;;;;;;;;;;21084584;28;20047;-63
2022/10/25 08:12:02;;;;;;;11.80;3.03;;;;;;;;;;21096454;28;20185;-62
2022/10/25 08:22:05;;;;;;;11.45;2.90;;;;;;;;;;21095529;28;20483;-62
2022/10/25 08:32:07;;;;;;;9.38;2.20;;;;;;;;;;21094513;28;20048;-62
2022/10/25 08:42:14;;;;;;;13.68;3.00;;;;;;;;;;21091874;28;20106;-62
2022/10/25 08:52:26;;;;;;;6.03;2.30;;;;;;;;;;21073737;28;20048;-62
2022/10/25 09:02:37;;;;;;;7.97;2.00;;;;;;;;;;21092819;28;20052;-63
2022/10/25 09:12:45;;;;;;;7.68;1.77;;;;;;;;;;21090587;28;20119;-65
2022/10/25 09:22:57;;;;;;;14.83;2.87;;;;;;;;;;21090239;28;20052;-67
2022/10/25 09:33:00;;;;;;;15.50;2.83;;;;;;;;;;21088565;28;20052;-63
2022/10/25 09:43:04;;;;;;;9.82;2.90;;;;;;;;;;21087021;28;20487;-57
2022/10/25 09:53:13;;;;;;;9.85;2.72;;;;;;;;;;21086875;28;20139;-61
2022/10/25 10:03:15;;;;;;;18.52;3.67;;;;;;;;;;21085931;28;20050;-63
2022/10/25 10:13:27;;;;;;;11.82;2.70;;;;;;;;;;21085347;28;20052;-57
2022/10/25 10:23:50;;;;;;;8.77;2.83;;;;;;;;;;21083534;28;20130;-58
2022/10/25 10:33:52;;;;;;;16.17;4.30;;;;;;;;;;20825973;28;20049;-65
2022/10/25 10:44:08;;;;;;;27.00;4.13;;;;;;;;;;20825662;28;20159;-58
2022/10/25 10:54:24;;;;;;;11.00;2.88;;;;;;;;;;20777542;28;20053;-60
2022/10/25 11:04:26;;;;;;;9.18;2.63;;;;;;;;;;20801446;28;20048;-67
2022/10/25 11:14:28;;;;;;;9.32;2.85;;;;;;;;;;20997454;28;20049;-56
2022/10/25 11:24:40;;;;;;;14.55;2.63;;;;;;;;;;20995673;28;20083;-65
2022/10/25 11:34:51;;;;;;;17.13;3.83;;;;;;;;;;20996311;28;20109;-68
2022/10/25 11:45:05;;;;;;;11.73;3.00;;;;;;;;;;20996184;28;20045;-69
2022/10/25 11:55:24;;;;;;;10.50;2.75;;;;;;;;;;21054987;28;20087;-64
2022/10/25 12:05:44;;;;;;;16.23;3.40;;;;;;;;;;21032582;28;20443;-72
2022/10/25 12:15:48;;;;;;;18.20;3.50;;;;;;;;;;20992481;28;20048;-67
2022/10/25 12:26:01;;;;;;;14.77;3.33;;;;;;;;;;20990836;28;20051;-67
2022/10/25 12:36:11;;;;;;;14.52;3.30;;;;;;;;;;20993251;28;20522;-66
2022/10/25 12:46:31;;;;;;;14.70;3.63;;;;;;;;;;20994537;28;20083;-66
2022/10/25 12:56:52;;;;;;;10.80;2.67;;;;;;;;;;21008043;28;20049;-60
2022/10/25 13:06:54;;;;;;;13.02;2.25;;;;;;;;;;21006788;28;20061;-67
2022/10/25 13:17:15;;;;;;;11.02;2.55;;;;;;;;;;21005316;28;20133;-63
2022/10/25 13:27:23;;;;;;;10.23;3.00;;;;;;;;;;21008160;28;20041;-67
2022/10/25 13:37:33;;;;;;;15.65;3.30;;;;;;;;;;21007733;28;20048;-66
2022/10/25 13:47:43;;;;;;;12.18;2.65;;;;;;;;;;20942924;28;20052;-68
2022/10/25 13:57:50;;;;;;;11.45;2.22;;;;;;;;;;20921138;28;20096;-61
2022/10/25 14:07:54;;;;;;;11.48;2.40;;;;;;;;;;20920597;28;20049;-66
2022/10/25 14:17:58;;;;;;;15.45;2.67;;;;;;;;;;20919147;28;20056;-68
2022/10/25 14:28:23;;;;;;;15.48;2.80;;;;;;;;;;20927996;28;20037;-71
2022/10/25 14:38:27;;;;;;;9.85;2.60;;;;;;;;;;20656384;28;20534;-78
2022/10/25 14:48:29;;;;;;;17.95;3.85;;;;;;;;;;20711450;28;20049;-73
2022/10/25 14:58:38;;;;;;;12.30;3.75;;;;;;;;;;20739893;28;20069;-72
2022/10/25 15:08:40;;;;;;;14.10;2.83;;;;;;;;;;20774091;28;20067;-61
2022/10/25 15:18:42;;;;;;;13.02;2.97;;;;;;;;;;20911550;28;20096;-69
2022/10/25 15:28:53;;;;;;;11.52;3.08;;;;;;;;;;20910598;28;20064;-67
2022/10/25 15:38:56;;;;;;;14.18;3.55;;;;;;;;;;20910172;28;20394;-68
2022/10/25 15:48:59;;;;;;;9.48;2.58;;;;;;;;;;20908922;28;20128;-70
2022/10/25 15:59:01;;;;;;;7.78;2.70;;;;;;;;;;20910227;28;20512;-67
2022/10/25 16:09:04;;;;;;;10.50;2.90;;;;;;;;;;20908505;28;20132;-72
2022/10/25 16:19:05;;;;;;;11.95;3.03;;;;;;;;;;20910243;28;20135;-70
2022/10/25 16:29:12;;;;;;;9.50;2.50;;;;;;;;;;20925363;28;20048;-73
2022/10/25 16:39:15;;;;;;;7.53;2.57;;;;;;;;;;20927250;28;20481;-68
2022/10/25 16:49:16;;;;;;;10.45;2.53;;;;;;;;;;20943013;28;20052;-69
2022/10/25 16:59:18;;;;;;;12.40;3.50;;;;;;;;;;20995696;28;20117;-69
2022/10/25 17:09:20;;;;;;;17.70;4.63;;;;;;;;;;21000881;28;20071;-72
2022/10/25 17:19:22;;;;;;;12.25;3.33;;;;;;;;;;21001096;28;20106;-70
2022/10/25 17:29:24;;;;;;;16.15;5.15;;;;;;;;;;21001773;28;20119;-63
2022/10/25 17:39:26;;;;;;;11.63;4.03;;;;;;;;;;20918501;28;20053;-71
2022/10/25 17:49:28;;;;;;;9.88;2.92;;;;;;;;;;20995268;28;20052;-64
2022/10/25 17:59:30;;;;;;;9.18;2.88;;;;;;;;;;20999786;28;20052;-65
2022/10/25 18:09:32;;;;;;;7.38;3.08;;;;;;;;;;21004674;28;20468;-76
2022/10/25 18:19:34;;;;;;;13.18;4.38;;;;;;;;;;21001759;28;20057;-76
2022/10/25 18:29:36;;;;;;;10.88;4.22;;;;;;;;;;21000355;28;20127;-75
2022/10/25 18:39:38;;;;;;;14.48;5.68;;;;;;;;;;21000269;28;20122;-76
2022/10/25 18:49:40;;;;;;;18.38;5.07;;;;;;;;;;20997500;28;20165;-76
2022/10/25 18:59:42;;;;;;;13.88;4.00;;;;;;;;;;21000245;28;20508;-77
2022/10/25 19:09:44;;;;;;;13.65;4.13;;;;;;;;;;21009853;28;20045;-77
2022/10/25 19:19:46;;;;;;;15.70;6.03;;;;;;;;;;20997321;28;20052;-77
2022/10/25 19:29:48;;;;;;;10.18;4.70;;;;;;;;;;20998499;28;20048;-74
2022/10/25 19:39:49;;;;;;;16.67;5.25;;;;;;;;;;21002508;28;20052;-74
2022/10/25 19:49:51;;;;;;;21.42;10.63;;;;;;;;;;20995477;28;20095;-77
2022/10/25 19:59:53;;;;;;;13.40;5.50;;;;;;;;;;21011273;28;20053;-69
2022/10/25 20:09:55;;;;;;;15.02;4.60;;;;;;;;;;21023124;28;20049;-78
2022/10/25 20:19:57;;;;;;;19.40;7.03;;;;;;;;;;21047484;28;20048;-72
2022/10/25 20:29:58;;;;;;;22.58;7.20;;;;;;;;;;21048351;28;20059;-69
2022/10/25 20:40:02;;;;;;;13.10;5.18;;;;;;;;;;21025116;28;20139;-63
2022/10/25 20:50:04;;;;;;;12.00;5.30;;;;;;;;;;21021422;28;20471;-73
2022/10/25 21:00:07;;;;;;;15.85;6.30;;;;;;;;;;21022446;28;20051;-66
2022/10/25 21:10:09;;;;;;;14.38;5.45;;;;;;;;;;21015926;28;20071;-76
2022/10/25 21:20:11;;;;;;;19.75;6.57;;;;;;;;;;21013199;28;20048;-77
2022/10/25 21:30:12;;;;;;;13.00;5.70;;;;;;;;;;21007854;28;20048;-62
2022/10/25 21:40:15;;;;;;;15.70;6.45;;;;;;;;;;21007166;28;20059;-73
2022/10/25 21:50:17;;;;;;;14.48;4.57;;;;;;;;;;21006289;28;20041;-65
2022/10/25 22:00:19;;;;;;;17.63;5.80;;;;;;;;;;21005552;28;20216;-75
2022/10/25 22:10:21;;;;;;;21.75;6.10;;;;;;;;;;21006318;28;20044;-71
2022/10/25 22:20:23;;;;;;;14.30;4.90;;;;;;;;;;21004746;28;20045;-76
2022/10/25 22:30:25;;;;;;;11.88;5.60;;;;;;;;;;21003607;28;20046;-75
2022/10/25 22:40:27;;;;;;;10.60;4.28;;;;;;;;;;21003372;28;20054;-71
2022/10/25 22:50:29;;;;;;;15.00;5.30;;;;;;;;;;20986377;28;20048;-77
2022/10/25 23:00:31;;;;;;;14.98;5.90;;;;;;;;;;21000292;28;20052;-73
2022/10/25 23:10:33;;;;;;;18.50;6.07;;;;;;;;;;20999187;28;20207;-70
2022/10/25 23:20:35;;;;;;;14.30;5.90;;;;;;;;;;20999498;28;20404;-70
2022/10/25 23:30:37;;;;;;;13.98;4.78;;;;;;;;;;20999312;28;20131;-66
2022/10/25 23:40:39;;;;;;;15.07;4.43;;;;;;;;;;20998415;28;20054;-68
2022/10/25 23:50:41;;;;;;;15.02;4.60;;;;;;;;;;20996910;28;20136;-71
